Data for 12/21/2010

Time Sea-Level Adjusted Pressure Absolute Pressure Temperature Relative Humidity Dew Point   
(mb) (inHg) (mb) (inHg) (C) (F) (%) (C) (F)
00:05 1012 29.88 841 24.83 -6.5 20.4 59 -13.3 8.1
00:10 1012 29.88 841 24.83 -6.8 19.8 60 -13.2 8.2
00:15 1012 29.88 841 24.83 -6.9 19.6 59 -13.5 7.7
00:20 1012 29.88 841 24.83 -7 19.4 60 -13.5 7.7
00:25 1012 29.88 841 24.83 -7.1 19.3 61 -13.4 7.8
00:30 1012 29.88 841 24.83 -6.9 19.6 60 -13.5 7.7
00:35 1012 29.88 841 24.83 -7 19.4 60 -13.5 7.7
00:40 1012 29.88 841 24.83 -7.3 18.9 60 -13.8 7.2
00:45 1012 29.88 841 24.83 -7.6 18.4 61 -13.9 7
00:50 1012 29.88 841 24.83 -7.9 17.8 61 -14.1 6.7
00:55 1012 29.88 841 24.83 -8.2 17.3 63 -14.1 6.6
01:00 1012 29.88 841 24.83 -7.9 17.8 61 -14.2 6.5
01:05 1012 29.88 841 24.83 -8 17.7 64 -13.7 7.3
01:10 1012 29.88 841 24.83 -7.8 18.1 62 -13.8 7.1
01:15 1012 29.88 842 24.86 -8.2 17.3 63 -13.9 6.9
01:20 1012 29.88 842 24.86 -8.2 17.2 64 -14 6.8
01:25 1012 29.88 842 24.86 -8.3 17.1 64 -14 6.7
01:30 1012 29.88 842 24.86 -8.3 17 63 -14.2 6.4
01:35 1012 29.88 842 24.86 -8.4 16.8 63 -14.3 6.2
01:40 1012 29.88 842 24.86 -8.7 16.3 64 -14.4 6
01:45 1013 29.91 842 24.86 -8.2 17.3 60 -14.7 5.6
01:50 1013 29.91 842 24.86 -7.1 19.2 59 -13.9 7
01:55 1013 29.91 842 24.86 -7.6 18.3 59 -14.2 6.4
02:00 1013 29.91 842 24.86 -8 17.6 61 -14.3 6.3
02:05 1013 29.91 842 24.86 -8 17.7 62 -14 6.8
02:10 1013 29.91 842 24.86 -7.7 18.2 62 -13.8 7.2
02:15 1013 29.91 842 24.86 -7.2 19 61 -13.6 7.5
02:20 1013 29.91 842 24.86 -7.3 18.8 59 -14 6.8
02:25 1013 29.91 842 24.86 -7.8 18 60 -14.3 6.3
02:30 1013 29.91 842 24.86 -7.8 18 60 -14.2 6.4
02:35 1013 29.91 842 24.86 -7.9 17.8 60 -14.3 6.2
02:40 1013 29.91 842 24.86 -7.8 18 60 -14.3 6.2
02:45 1013 29.91 842 24.86 -7.5 18.5 61 -13.9 7
02:50 1013 29.91 842 24.86 -7.5 18.6 59 -14.2 6.4
02:55 1013 29.91 842 24.86 -7.6 18.4 60 -14 6.9
03:00 1013 29.91 842 24.86 -7.7 18.2 61 -14 6.8
03:05 1013 29.91 842 24.86 -7.8 18.1 61 -14.1 6.7
03:10 1013 29.91 842 24.86 -7.6 18.3 62 -13.8 7.2
03:15 1013 29.91 842 24.86 -7.6 18.4 61 -13.8 7.1
03:20 1013 29.91 842 24.86 -7.6 18.4 60 -14.1 6.7
03:25 1013 29.91 842 24.86 -7.4 18.6 59 -14.1 6.6
03:30 1013 29.91 842 24.86 -7.5 18.4 60 -14.1 6.7
03:35 1013 29.91 842 24.86 -7.8 18 59 -14.4 6.1
03:40 1013 29.91 842 24.86 -8.3 17 62 -14.4 6.1
03:45 1013 29.91 843 24.89 -9 15.8 64 -14.6 5.7
03:50 1013 29.91 843 24.89 -8.5 16.8 61 -14.7 5.5
03:55 1013 29.91 843 24.89 -8.2 17.3 62 -14.3 6.3
04:00 1013 29.91 843 24.89 -8.5 16.8 63 -14.3 6.2
04:05 1013 29.91 843 24.89 -8 17.6 61 -14.3 6.3
04:10 1013 29.91 843 24.89 -7.4 18.6 60 -14 6.7
04:15 1013 29.91 843 24.89 -7.2 19.1 59 -14 6.9
04:20 1013 29.91 843 24.89 -7.4 18.7 59 -14 6.8
04:25 1013 29.91 843 24.89 -6.8 19.8 57 -13.9 7
04:30 1013 29.91 843 24.89 -6.3 20.7 58 -13.3 8
04:35 1013 29.91 843 24.89 -6.3 20.7 57 -13.5 7.7
04:40 1013 29.91 843 24.89 -6.9 19.6 57 -14.1 6.7
04:45 1014 29.94 843 24.89 -8.3 17.2 61 -14.4 6
04:50 1014 29.94 843 24.89 -8.2 17.2 62 -14.2 6.4
04:55 1014 29.94 843 24.89 -8.8 16.1 64 -14.5 5.9
05:00 1014 29.94 843 24.89 -9.1 15.6 64 -14.7 5.5
05:05 1014 29.94 843 24.89 -9.5 15 65 -14.8 5.3
05:10 1014 29.94 843 24.89 -9.8 14.4 66 -15 5
05:15 1014 29.94 843 24.89 -9.7 14.6 67 -14.8 5.4
05:20 1014 29.94 843 24.89 -9.4 15 67 -14.6 5.8
05:25 1014 29.94 843 24.89 -8.7 16.4 63 -14.6 5.8
05:30 1014 29.94 843 24.89 -8.8 16.3 64 -14.3 6.2
05:35 1014 29.94 843 24.89 -7.8 17.9 60 -14.4 6.1
05:40 1014 29.94 843 24.89 -7.3 18.8 58 -14.3 6.3
05:45 1014 29.94 843 24.89 -8.2 17.3 62 -14.2 6.4
05:50 1014 29.94 843 24.89 -9.3 15.3 67 -14.4 6.1
05:55 1014 29.94 843 24.89 -9.7 14.6 67 -14.7 5.5
06:00 1014 29.94 843 24.89 -9.7 14.5 68 -14.6 5.7
06:05 1014 29.94 843 24.89 -9.8 14.3 69 -14.4 6
06:10 1014 29.94 843 24.89 -9.7 14.5 69 -14.4 6
06:15 1014 29.94 843 24.89 -9.3 15.4 65 -14.7 5.6
06:20 1014 29.94 844 24.92 -9 15.9 66 -14.1 6.6
06:25 1014 29.94 844 24.92 -9.4 15 69 -14.2 6.5
06:30 1014 29.94 844 24.92 -9.2 15.4 67 -14.3 6.3
06:35 1014 29.94 844 24.92 -8.7 16.4 65 -14.1 6.7
06:40 1014 29.94 844 24.92 -8.3 17.1 66 -13.6 7.4
06:45 1014 29.94 844 24.92 -8.8 16.2 67 -13.8 7.1
06:50 1015 29.97 844 24.92 -8.4 17 65 -13.9 7
06:55 1015 29.97 844 24.92 -8.5 16.8 66 -13.6 7.5
07:00 1015 29.97 844 24.92 -8.9 16 64 -14.5 6
07:05 1015 29.97 844 24.92 -9.7 14.5 67 -14.7 5.5
07:10 1015 29.97 844 24.92 -9.2 15.5 65 -14.6 5.8
07:15 1015 29.97 844 24.92 -9.2 15.4 66 -14.5 6
07:20 1015 29.97 844 24.92 -9.7 14.6 67 -14.8 5.4
07:25 1015 29.97 844 24.92 -9.4 15 64 -15 5.1
07:30 1015 29.97 844 24.92 -9.4 15 64 -15 5
07:35 1015 29.97 844 24.92 -9.3 15.3 64 -14.8 5.4
07:40 1015 29.97 844 24.92 -9 15.7 66 -14.2 6.4
07:45 1015 29.97 844 24.92 -9 15.9 70 -13.5 7.7
07:50 1015 29.97 844 24.92 -8.9 16 71 -13.3 8
07:55 1015 29.97 844 24.92 -8.6 16.6 69 -13.2 8.2
08:00 1015 29.97 844 24.92 -8.5 16.7 69 -13.3 8.1
08:05 1015 29.97 844 24.92 -8.7 16.4 69 -13.4 7.8
08:10 1015 29.97 844 24.92 -9 15.9 69 -13.6 7.5
08:15 1015 29.97 845 24.95 -9.2 15.5 69 -13.8 7.1
08:20 1015 29.97 845 24.95 -9.3 15.3 68 -14.1 6.6
08:25 1015 29.97 845 24.95 -9.3 15.3 68 -14.2 6.5
08:30 1015 29.97 845 24.95 -8.7 16.3 66 -14 6.9
08:35 1015 29.97 845 24.95 -8.2 17.2 64 -13.8 7.1
08:40 1015 29.97 845 24.95 -7.4 18.7 59 -14 6.8
08:45 1015 29.97 845 24.95 -7.4 18.8 59 -14 6.8
08:50 1016 30 845 24.95 -8.4 16.8 63 -14.2 6.4
08:55 1016 30 845 24.95 -8.9 16.1 61 -15 5
09:00 1016 30 845 24.95 -8.9 16 63 -14.7 5.6
09:05 1016 30 845 24.95 -7.8 18 59 -14.5 6
09:10 1016 30 845 24.95 -8.1 17.4 60 -14.6 5.8
09:15 1016 30 845 24.95 -8.4 16.9 63 -14.3 6.2
09:20 1016 30 845 24.95 -8.3 17.1 62 -14.3 6.2
09:25 1016 30 845 24.95 -8.2 17.3 62 -14.2 6.5
09:30 1016 30 845 24.95 -7.7 18.1 60 -14.3 6.3
09:35 1016 30 845 24.95 -7.5 18.6 58 -14.4 6.1
09:40 1016 30 845 24.95 -7.5 18.6 59 -14.3 6.3
09:45 1016 30 845 24.95 -7 19.4 57 -14.1 6.5
09:50 1016 30 845 24.95 -6.1 21.1 54 -14 6.7
09:55 1016 30 846 24.98 -5.9 21.4 54 -13.9 7
10:00 1017 30.03 846 24.98 -6.2 20.8 55 -13.9 7.1
10:05 1017 30.03 846 24.98 -6.4 20.6 56 -13.8 7.2
10:10 1017 30.03 846 24.98 -6 21.1 54 -13.9 7
10:15 1017 30.03 846 24.98 -5.3 22.5 51 -13.8 7.1
10:20 1017 30.03 846 24.98 -5 23 51 -13.6 7.5
10:25 1017 30.03 846 24.98 -5 23 51 -13.6 7.5
10:30 1017 30.03 846 24.98 -5 22.9 51 -13.7 7.4
10:35 1017 30.03 846 24.98 -4.9 23.2 51 -13.5 7.6
10:40 1017 30.03 846 24.98 -5 23 53 -13.2 8.2
10:45 1017 30.03 846 24.98 -5.3 22.5 53 -13.4 7.8
10:50 1017 30.03 846 24.98 -5.4 22.3 54 -13.3 8.1
10:55 1017 30.03 846 24.98 -5.4 22.4 54 -13.2 8.2
11:00 1017 30.03 846 24.98 -5 23 53 -13.2 8.2
11:05 1017 30.03 846 24.98 -4.6 23.7 51 -13.3 8.1
11:10 1017 30.03 846 24.98 -4.3 24.2 51 -13 8.6
11:15 1017 30.03 846 24.98 -3.7 25.3 48 -13.2 8.3
11:20 1017 30.03 846 24.98 -3.6 25.5 49 -12.8 9
11:25 1017 30.03 846 24.98 -3.6 25.4 49 -12.8 9
11:30 1017 30.03 846 24.98 -3.6 25.6 50 -12.6 9.3
11:35 1017 30.03 846 24.98 -4.1 24.7 50 -13 8.6
11:40 1017 30.03 846 24.98 -4.3 24.2 53 -12.5 9.6
11:45 1017 30.03 846 24.98 -4.7 23.6 53 -12.8 9
11:50 1017 30.03 846 24.98 -4.2 24.5 54 -12.2 10
11:55 1017 30.03 846 24.98 -4.1 24.6 54 -12.1 10.2
12:00 1017 30.03 846 24.98 -3.9 25 53 -12 10.3
12:05 1017 30.03 846 24.98 -3.9 25 54 -12 10.4
12:10 1017 30.03 846 24.98 -4.5 23.9 55 -12.1 10.1
12:15 1017 30.03 846 24.98 -4.4 24 53 -12.6 9.4
12:20 1017 30.03 846 24.98 -4.3 24.4 54 -12.2 10
12:25 1017 30.03 846 24.98 -4.3 24.2 55 -12.1 10.2
12:30 1017 30.03 846 24.98 -4.8 23.3 56 -12.2 10
12:35 1017 30.03 846 24.98 -5.1 22.7 56 -12.6 9.3
12:40 1017 30.03 846 24.98 -5 23.1 56 -12.4 9.7
12:45 1017 30.03 846 24.98 -5.3 22.4 57 -12.5 9.5
12:50 1017 30.03 846 24.98 -4.9 23.1 57 -12.3 9.9
12:55 1017 30.03 846 24.98 -4.6 23.8 55 -12.3 9.8
13:00 1017 30.03 846 24.98 -4.1 24.7 53 -12.2 10
13:05 1017 30.03 846 24.98 -3.8 25.2 51 -12.5 9.6
13:10 1017 30.03 846 24.98 -3.4 25.9 52 -12 10.5
13:15 1017 30.03 846 24.98 -3.7 25.4 53 -11.9 10.6
13:20 1017 30.03 846 24.98 -3.7 25.3 52 -12.1 10.2
13:25 1017 30.03 846 24.98 -4.1 24.7 53 -12.2 10.1
13:30 1017 30.03 846 24.98 -4 24.8 54 -11.9 10.6
13:35 1017 30.03 846 24.98 -3.9 25.1 53 -12.1 10.3
13:40 1017 30.03 846 24.98 -4.1 24.6 54 -12.1 10.2
13:45 1017 30.03 846 24.98 -4.3 24.2 55 -12.1 10.2
13:50 1017 30.03 846 24.98 -4.6 23.7 56 -12.1 10.2
13:55 1017 30.03 846 24.98 -4.7 23.6 56 -12.3 9.9
14:00 1017 30.03 846 24.98 -4.6 23.7 56 -12.1 10.2
14:05 1017 30.03 846 24.98 -4.6 23.7 56 -12.1 10.3
14:10 1017 30.03 846 24.98 -4.7 23.6 56 -12.2 10
14:15 1017 30.03 846 24.98 -4.5 23.9 57 -11.7 10.9
14:20 1017 30.03 846 24.98 -4.6 23.7 57 -12 10.4
14:25 1017 30.03 846 24.98 -4.3 24.3 55 -12.1 10.3
14:30 1017 30.03 846 24.98 -4.3 24.3 56 -11.9 10.6
14:35 1017 30.03 846 24.98 -4.3 24.3 54 -12.3 9.9
14:40 1017 30.03 846 24.98 -3.9 24.9 54 -12 10.5
14:45 1017 30.03 846 24.98 -3.9 24.9 54 -12 10.3
14:50 1017 30.03 846 24.98 -3.9 25 53 -12.1 10.2
14:55 1017 30.03 846 24.98 -3.5 25.7 52 -12 10.4
15:00 1017 30.03 846 24.98 -3.4 25.8 52 -11.9 10.6
15:05 1017 30.03 846 24.98 -3.7 25.4 53 -11.8 10.7
15:10 1017 30.03 846 24.98 -4.2 24.5 55 -11.9 10.5
15:15 1017 30.03 846 24.98 -4.7 23.5 57 -12 10.4
15:20 1017 30.03 846 24.98 -4.8 23.4 56 -12.3 9.9
15:25 1017 30.03 846 24.98 -4.6 23.7 55 -12.3 9.9
15:30 1017 30.03 847 25.01 -4.8 23.4 56 -12.4 9.7
15:35 1017 30.03 846 24.98 -4.6 23.8 55 -12.4 9.7
15:40 1017 30.03 846 24.98 -4.2 24.4 54 -12.3 9.8
15:45 1017 30.03 846 24.98 -4.2 24.4 53 -12.5 9.6
15:50 1017 30.03 846 24.98 -3.8 25.1 52 -12.4 9.6
15:55 1017 30.03 846 24.98 -3.9 25 51 -12.5 9.4
16:00 1017 30.03 846 24.98 -4.1 24.5 53 -12.3 9.8
16:05 1017 30.03 846 24.98 -4 24.8 52 -12.4 9.7
16:10 1017 30.03 846 24.98 -4.2 24.4 54 -12.1 10.2
16:15 1017 30.03 846 24.98 -4.3 24.3 54 -12.3 9.8
16:20 1017 30.03 846 24.98 -4.1 24.5 54 -12.2 10
16:25 1017 30.03 846 24.98 -4.3 24.2 54 -12.2 10
16:30 1017 30.03 846 24.98 -4.7 23.5 57 -11.9 10.5
16:35 1017 30.03 846 24.98 -5.3 22.4 60 -11.9 10.6
16:40 1017 30.03 846 24.98 -5.7 21.8 62 -11.8 10.7
16:45 1017 30.03 846 24.98 -5.9 21.5 63 -11.9 10.7
16:50 1017 30.03 846 24.98 -6.2 20.8 65 -11.8 10.8
16:55 1017 30.03 846 24.98 -6.3 20.6 64 -12 10.4
17:00 1017 30.03 846 24.98 -6.5 20.3 64 -12.1 10.2
17:05 1017 30.03 846 24.98 -6.8 19.7 65 -12.3 9.9
17:10 1017 30.03 846 24.98 -7.1 19.2 66 -12.4 9.7
17:15 1017 30.03 847 25.01 -7.2 19 67 -12.4 9.7
17:20 1017 30.03 847 25.01 -7.3 18.8 68 -12.3 9.8
17:25 1017 30.03 847 25.01 -7.3 18.8 66 -12.5 9.4
17:30 1017 30.03 847 25.01 -7.6 18.4 67 -12.6 9.3
17:35 1018 30.06 847 25.01 -7.7 18.2 68 -12.5 9.4
17:40 1018 30.06 847 25.01 -7.7 18.2 66 -12.9 8.8
17:45 1018 30.06 847 25.01 -8.2 17.2 70 -12.7 9.1
17:50 1018 30.06 847 25.01 -8.8 16.1 73 -12.8 9
17:55 1018 30.06 847 25.01 -9 15.9 71 -13.3 8
18:00 1018 30.06 847 25.01 -9.4 15.1 73 -13.4 7.9
18:05 1018 30.06 847 25.01 -9.8 14.3 73 -13.7 7.3
18:10 1018 30.06 847 25.01 -10 13.9 75 -13.6 7.5
18:15 1018 30.06 847 25.01 -9.2 15.5 71 -13.5 7.8
18:20 1018 30.06 847 25.01 -9.1 15.7 71 -13.5 7.7
18:25 1018 30.06 847 25.01 -9.2 15.5 71 -13.5 7.8
18:30 1018 30.06 847 25.01 -9 15.7 72 -13.2 8.2
18:35 1018 30.06 847 25.01 -8.9 16.1 72 -13.1 8.5
18:40 1018 30.06 847 25.01 -9 15.7 73 -13.1 8.4
18:45 1018 30.06 847 25.01 -9.1 15.5 72 -13.3 8
18:50 1018 30.06 847 25.01 -9.4 15.1 73 -13.4 7.9
18:55 1018 30.06 847 25.01 -9.4 15 73 -13.4 7.9
19:00 1018 30.06 847 25.01 -9.4 15 73 -13.4 7.8
19:05 1018 30.06 847 25.01 -8.8 16.1 71 -13.1 8.3
19:10 1018 30.06 847 25.01 -8.8 16.2 71 -13.2 8.2
19:15 1018 30.06 847 25.01 -9.3 15.2 73 -13.4 7.9
19:20 1018 30.06 847 25.01 -9.6 14.7 73 -13.6 7.5
19:25 1018 30.06 847 25.01 -9.9 14.3 76 -13.3 8.1
19:30 1018 30.06 847 25.01 -9.3 15.3 70 -13.7 7.3
19:35 1018 30.06 847 25.01 -10.1 13.8 77 -13.5 7.8
19:40 1018 30.06 847 25.01 -10 14 77 -13.4 8
19:45 1018 30.06 847 25.01 -9.4 15 75 -13.2 8.3
19:50 1018 30.06 847 25.01 -8.9 16 73 -12.9 8.8
19:55 1018 30.06 847 25.01 -8.7 16.3 72 -12.9 8.8
20:00 1018 30.06 847 25.01 -9 15.9 73 -13 8.6
20:05 1018 30.06 847 25.01 -9 15.9 73 -12.9 8.8
20:10 1018 30.06 847 25.01 -9 15.9 71 -13.2 8.2
20:15 1018 30.06 847 25.01 -9.3 15.3 74 -13 8.6
20:20 1018 30.06 847 25.01 -9 15.9 74 -12.8 8.9
20:25 1018 30.06 847 25.01 -8.6 16.5 73 -12.6 9.3
20:30 1018 30.06 847 25.01 -8.7 16.4 71 -13 8.7
20:35 1018 30.06 847 25.01 -9.1 15.5 74 -13 8.5
20:40 1018 30.06 847 25.01 -9.5 14.9 74 -13.2 8.2
20:45 1018 30.06 847 25.01 -9.6 14.7 74 -13.4 7.8
20:50 1018 30.06 847 25.01 -9.8 14.4 74 -13.6 7.6
20:55 1018 30.06 847 25.01 -9.6 14.6 74 -13.5 7.7
21:00 1018 30.06 847 25.01 -9.3 15.2 73 -13.4 7.9
21:05 1018 30.06 847 25.01 -9.3 15.3 72 -13.5 7.7
21:10 1018 30.06 847 25.01 -9.2 15.5 73 -13.2 8.3
21:15 1018 30.06 847 25.01 -9.6 14.8 74 -13.4 7.9
21:20 1018 30.06 847 25.01 -10.1 13.9 72 -14.3 6.3
21:25 1018 30.06 847 25.01 -10.3 13.4 76 -13.8 7.2
21:30 1018 30.06 847 25.01 -10.3 13.5 76 -13.8 7.2
21:35 1018 30.06 847 25.01 -10 13.9 76 -13.5 7.7
21:40 1018 30.06 847 25.01 -9.8 14.3 76 -13.3 8.1
21:45 1018 30.06 847 25.01 -9.3 15.2 73 -13.2 8.2
21:50 1018 30.06 847 25.01 -8.9 16.1 71 -13.1 8.4
21:55 1018 30.06 847 25.01 -8.6 16.4 71 -13 8.6
22:00 1018 30.06 847 25.01 -8.5 16.7 70 -13 8.6
22:05 1018 30.06 847 25.01 -8.8 16.3 72 -13 8.7
22:10 1018 30.06 847 25.01 -8.8 16.3 71 -13 8.6
22:15 1018 30.06 847 25.01 -8.5 16.7 71 -12.9 8.7
22:20 1018 30.06 847 25.01 -9 15.9 71 -13.3 8
22:25 1018 30.06 847 25.01 -9.5 14.9 75 -13.2 8.2
22:30 1018 30.06 847 25.01 -9.7 14.6 75 -13.3 8
22:35 1018 30.06 847 25.01 -9.7 14.6 74 -13.5 7.7
22:40 1018 30.06 847 25.01 -9.6 14.7 74 -13.5 7.8
22:45 1018 30.06 847 25.01 -9.7 14.5 73 -13.7 7.4
22:50 1018 30.06 847 25.01 -10 13.9 77 -13.3 8
22:55 1018 30.06 847 25.01 -10 13.9 77 -13.3 8
23:00 1018 30.06 847 25.01 -9.7 14.5 75 -13.3 8.1
23:05 1018 30.06 847 25.01 -9.6 14.7 75 -13.2 8.3
23:10 1018 30.06 847 25.01 -9.5 14.8 75 -13.1 8.4
23:15 1018 30.06 847 25.01 -9.4 15.1 75 -12.9 8.7
23:20 1018 30.06 847 25.01 -9.1 15.7 73 -13 8.6
23:25 1018 30.06 847 25.01 -9.3 15.3 75 -12.9 8.8
23:30 1018 30.06 847 25.01 -9.4 15.1 75 -13.1 8.4
23:35 1018 30.06 847 25.01 -9.6 14.7 76 -13.2 8.3
23:40 1018 30.06 847 25.01 -9.7 14.5 77 -13.1 8.4
23:45 1018 30.06 847 25.01 -9.5 14.8 75 -13.2 8.3
23:50 1018 30.06 847 25.01 -9.7 14.6 76 -13.2 8.3
23:55 1018 30.06 847 25.01 -9.7 14.6 76 -13.1 8.5
24:00 1018 30.06 847 25.01 -9.4 15.1 75 -13.1 8.5